Time,TemperatureF,DewpointF,PressureIn,WindDirection,WindDirectionDegrees,WindSpeedMPH,WindSpeedGustMPH,Humidity,HourlyPrecipIn,Conditions,Clouds,dailyrainin,SoftwareType,DateUTC
2013-06-16 00:01:00,64.0,58.0,29.96,SSW,192,3.0,8.0,81,-99.99,,,-99.99,,2013-06-16 07:01:00,
2013-06-16 00:11:00,64.0,57.0,29.96,WSW,244,3.0,6.0,79,-99.99,,,-99.99,,2013-06-16 07:11:00,
2013-06-16 00:22:00,65.0,56.0,29.96,SW,232,4.0,10.0,73,-99.99,,,-99.99,,2013-06-16 07:22:00,
2013-06-16 00:32:00,66.0,53.0,29.96,West,261,6.0,11.0,62,-99.99,,,-99.99,,2013-06-16 07:32:00,
2013-06-16 00:43:00,65.0,57.0,29.97,SSE,161,2.0,3.0,75,-99.99,,,-99.99,,2013-06-16 07:43:00,
2013-06-16 00:53:00,63.0,58.0,29.97,West,260,3.0,7.0,84,-99.99,,,-99.99,,2013-06-16 07:53:00,
2013-06-16 01:02:00,63.0,56.0,29.97,WSW,247,4.0,9.0,77,-99.99,,,-99.99,,2013-06-16 08:02:00,
2013-06-16 01:11:00,65.0,53.0,29.97,West,280,6.0,11.0,65,-99.99,,,-99.99,,2013-06-16 08:11:00,
2013-06-16 01:22:00,63.0,56.0,29.98,SW,236,4.0,10.0,78,-99.99,,,-99.99,,2013-06-16 08:22:00,
2013-06-16 01:33:00,66.0,52.0,29.99,West,277,6.0,9.0,61,-99.99,,,-99.99,,2013-06-16 08:33:00,
2013-06-16 01:43:00,66.0,52.0,29.99,West,279,4.0,9.0,60,-99.99,,,-99.99,,2013-06-16 08:43:00,
2013-06-16 01:54:00,64.0,54.0,29.99,SW,231,2.0,4.0,70,-99.99,,,-99.99,,2013-06-16 08:54:00,
2013-06-16 02:01:00,62.0,56.0,29.99,SW,228,3.0,4.0,81,-99.99,,,-99.99,,2013-06-16 09:01:00,
2013-06-16 02:11:00,61.0,56.0,29.99,SSW,198,2.0,3.0,82,-99.99,,,-99.99,,2013-06-16 09:11:00,
2013-06-16 02:22:00,61.0,56.0,29.99,WSW,239,2.0,6.0,81,-99.99,,,-99.99,,2013-06-16 09:22:00,
2013-06-16 02:33:00,61.0,54.0,29.99,South,182,1.0,2.0,79,-99.99,,,-99.99,,2013-06-16 09:33:00,
2013-06-16 02:42:00,61.0,56.0,29.99,WSW,245,4.0,6.0,82,-99.99,,,-99.99,,2013-06-16 09:42:00,
2013-06-16 02:52:00,65.0,52.0,29.99,WNW,282,11.0,17.0,62,-99.99,,,-99.99,,2013-06-16 09:52:00,
2013-06-16 03:01:00,65.0,51.0,29.99,WNW,286,14.0,23.0,60,-99.99,,,-99.99,,2013-06-16 10:01:00,
2013-06-16 03:12:00,65.0,51.0,29.99,WNW,290,13.0,24.0,61,-99.99,,,-99.99,,2013-06-16 10:12:00,
2013-06-16 03:22:00,64.0,51.0,29.99,WNW,289,12.0,25.0,62,-99.99,,,-99.99,,2013-06-16 10:22:00,
2013-06-16 03:33:00,64.0,52.0,29.99,WNW,293,11.0,19.0,64,-99.99,,,-99.99,,2013-06-16 10:33:00,
2013-06-16 03:42:00,63.0,52.0,29.99,WNW,292,10.0,17.0,65,-99.99,,,-99.99,,2013-06-16 10:42:00,
2013-06-16 03:53:00,63.0,51.0,29.99,WNW,283,9.0,15.0,65,-99.99,,,-99.99,,2013-06-16 10:53:00,
2013-06-16 04:02:00,63.0,51.0,29.99,WNW,283,9.0,15.0,65,-99.99,,,-99.99,,2013-06-16 11:02:00,
2013-06-16 04:11:00,63.0,52.0,30.00,West,277,9.0,13.0,66,-99.99,,,-99.99,,2013-06-16 11:11:00,
2013-06-16 04:22:00,63.0,51.0,30.00,WNW,289,11.0,17.0,65,-99.99,,,-99.99,,2013-06-16 11:22:00,
2013-06-16 04:33:00,63.0,51.0,30.00,WNW,289,11.0,17.0,65,-99.99,,,-99.99,,2013-06-16 11:33:00,
2013-06-16 04:43:00,63.0,51.0,29.99,WNW,283,10.0,17.0,67,-99.99,,,-99.99,,2013-06-16 11:43:00,
2013-06-16 04:52:00,62.0,52.0,29.99,West,260,10.0,16.0,69,-99.99,,,-99.99,,2013-06-16 11:52:00,
2013-06-16 05:02:00,62.0,52.0,30.00,West,268,10.0,18.0,70,-99.99,,,-99.99,,2013-06-16 12:02:00,
2013-06-16 05:11:00,62.0,52.0,30.00,West,275,10.0,17.0,69,-99.99,,,-99.99,,2013-06-16 12:11:00,
2013-06-16 05:22:00,62.0,52.0,30.00,West,271,11.0,16.0,69,-99.99,,,-99.99,,2013-06-16 12:22:00,
2013-06-16 05:32:00,62.0,51.0,30.00,West,280,10.0,17.0,69,-99.99,,,-99.99,,2013-06-16 12:32:00,
2013-06-16 05:42:00,62.0,52.0,30.00,WNW,288,10.0,18.0,69,-99.99,,,-99.99,,2013-06-16 12:42:00,
2013-06-16 05:53:00,61.0,51.0,30.00,West,269,10.0,17.0,69,-99.99,,,-99.99,,2013-06-16 12:53:00,
2013-06-16 06:01:00,62.0,51.0,30.00,WNW,294,11.0,16.0,69,-99.99,,,-99.99,,2013-06-16 13:01:00,
2013-06-16 06:11:00,61.0,51.0,30.00,WNW,284,12.0,20.0,68,-99.99,,,-99.99,,2013-06-16 13:11:00,
2013-06-16 06:22:00,61.0,51.0,30.00,WNW,284,12.0,20.0,68,-99.99,,,-99.99,,2013-06-16 13:22:00,
2013-06-16 06:34:00,61.0,51.0,30.01,WNW,289,11.0,16.0,69,-99.99,,,-99.99,,2013-06-16 13:34:00,
2013-06-16 06:42:00,61.0,52.0,30.01,West,281,9.0,18.0,70,-99.99,,,-99.99,,2013-06-16 13:42:00,
2013-06-16 06:53:00,62.0,51.0,30.01,WNW,289,11.0,17.0,69,-99.99,,,-99.99,,2013-06-16 13:53:00,
2013-06-16 07:01:00,61.0,51.0,30.01,WNW,291,11.0,17.0,69,-99.99,,,-99.99,,2013-06-16 14:01:00,
2013-06-16 07:12:00,61.0,51.0,30.01,WNW,292,12.0,21.0,70,-99.99,,,-99.99,,2013-06-16 14:12:00,
2013-06-16 07:22:00,61.0,51.0,30.01,WNW,289,12.0,19.0,70,-99.99,,,-99.99,,2013-06-16 14:22:00,
2013-06-16 07:34:00,61.0,52.0,30.01,WNW,285,12.0,22.0,70,-99.99,,,-99.99,,2013-06-16 14:34:00,
2013-06-16 07:43:00,62.0,52.0,30.02,WNW,292,12.0,22.0,69,-99.99,,,-99.99,,2013-06-16 14:43:00,
2013-06-16 07:52:00,62.0,51.0,30.02,WNW,286,12.0,22.0,68,-99.99,,,-99.99,,2013-06-16 14:52:00,
2013-06-16 08:02:00,63.0,51.0,30.02,WNW,283,10.0,18.0,67,-99.99,,,-99.99,,2013-06-16 15:02:00,
2013-06-16 08:12:00,62.0,51.0,30.01,WNW,282,10.0,17.0,66,-99.99,,,-99.99,,2013-06-16 15:12:00,
2013-06-16 08:22:00,63.0,51.0,30.02,WNW,284,12.0,21.0,65,-99.99,,,-99.99,,2013-06-16 15:22:00,
2013-06-16 08:33:00,62.0,51.0,30.02,WNW,288,11.0,18.0,66,-99.99,,,-99.99,,2013-06-16 15:33:00,
2013-06-16 08:43:00,63.0,51.0,30.02,WNW,286,11.0,17.0,66,-99.99,,,-99.99,,2013-06-16 15:43:00,
2013-06-16 08:52:00,63.0,51.0,30.02,WNW,289,9.0,16.0,65,-99.99,,,-99.99,,2013-06-16 15:52:00,
2013-06-16 09:01:00,64.0,51.0,30.01,WNW,291,12.0,19.0,63,-99.99,,,-99.99,,2013-06-16 16:01:00,
2013-06-16 09:11:00,64.0,51.0,30.02,WNW,296,11.0,19.0,62,-99.99,,,-99.99,,2013-06-16 16:11:00,
2013-06-16 09:22:00,64.0,51.0,30.02,WNW,285,11.0,21.0,62,-99.99,,,-99.99,,2013-06-16 16:22:00,
2013-06-16 09:33:00,65.0,51.0,30.02,WNW,295,10.0,16.0,61,-99.99,,,-99.99,,2013-06-16 16:33:00,
2013-06-16 09:43:00,66.0,51.0,30.02,WNW,302,9.0,16.0,59,-99.99,,,-99.99,,2013-06-16 16:43:00,
2013-06-16 09:53:00,66.0,51.0,30.01,WNW,285,11.0,16.0,58,-99.99,,,-99.99,,2013-06-16 16:53:00,
2013-06-16 10:01:00,66.0,51.0,30.01,West,281,11.0,19.0,57,-99.99,,,-99.99,,2013-06-16 17:01:00,
2013-06-16 10:11:00,67.0,51.0,30.01,WNW,295,11.0,20.0,57,-99.99,,,-99.99,,2013-06-16 17:11:00,
2013-06-16 10:22:00,67.0,51.0,30.01,WNW,295,11.0,20.0,57,-99.99,,,-99.99,,2013-06-16 17:22:00,
2013-06-16 10:34:00,67.0,51.0,30.00,WNW,287,12.0,19.0,57,-99.99,,,-99.99,,2013-06-16 17:34:00,
2013-06-16 10:43:00,67.0,52.0,30.01,West,270,12.0,19.0,58,-99.99,,,-99.99,,2013-06-16 17:43:00,
2013-06-16 10:53:00,67.0,53.0,30.01,West,269,9.0,18.0,59,-99.99,,,-99.99,,2013-06-16 17:53:00,
2013-06-16 11:02:00,68.0,53.0,30.01,West,277,8.0,18.0,58,-99.99,,,-99.99,,2013-06-16 18:02:00,
2013-06-16 11:12:00,68.0,53.0,30.01,WNW,289,6.0,11.0,57,-99.99,,,-99.99,,2013-06-16 18:12:00,
2013-06-16 11:22:00,69.0,53.0,30.01,West,274,6.0,13.0,56,-99.99,,,-99.99,,2013-06-16 18:22:00,
2013-06-16 11:33:00,71.0,53.0,30.01,West,279,8.0,18.0,53,-99.99,,,-99.99,,2013-06-16 18:33:00,
2013-06-16 11:43:00,71.0,52.0,30.00,WNW,284,11.0,20.0,52,-99.99,,,-99.99,,2013-06-16 18:43:00,
2013-06-16 11:52:00,71.0,52.0,30.00,WNW,287,12.0,21.0,51,-99.99,,,-99.99,,2013-06-16 18:52:00,
2013-06-16 12:01:00,72.0,52.0,30.00,WNW,292,11.0,18.0,49,-99.99,,,-99.99,,2013-06-16 19:01:00,
2013-06-16 12:11:00,74.0,53.0,30.00,WNW,288,9.0,19.0,48,-99.99,,,-99.99,,2013-06-16 19:11:00,
2013-06-16 12:22:00,74.0,53.0,30.00,WNW,293,10.0,18.0,46,-99.99,,,-99.99,,2013-06-16 19:22:00,
2013-06-16 12:33:00,74.0,54.0,29.99,WNW,289,8.0,14.0,49,-99.99,,,-99.99,,2013-06-16 19:33:00,
2013-06-16 12:43:00,74.0,53.0,29.99,WNW,295,8.0,16.0,48,-99.99,,,-99.99,,2013-06-16 19:43:00,
2013-06-16 12:53:00,74.0,53.0,29.99,WNW,290,9.0,17.0,48,-99.99,,,-99.99,,2013-06-16 19:53:00,
2013-06-16 13:02:00,75.0,54.0,29.99,WNW,287,10.0,16.0,47,-99.99,,,-99.99,,2013-06-16 20:02:00,
2013-06-16 13:11:00,74.0,53.0,29.98,WNW,289,12.0,20.0,47,-99.99,,,-99.99,,2013-06-16 20:11:00,
2013-06-16 13:22:00,74.0,54.0,29.99,WNW,290,12.0,21.0,50,-99.99,,,-99.99,,2013-06-16 20:22:00,
2013-06-16 13:33:00,73.0,54.0,29.98,WNW,292,13.0,22.0,50,-99.99,,,-99.99,,2013-06-16 20:33:00,
2013-06-16 13:42:00,73.0,54.0,29.98,WNW,287,14.0,23.0,51,-99.99,,,-99.99,,2013-06-16 20:42:00,
2013-06-16 13:53:00,73.0,54.0,29.97,WNW,289,14.0,25.0,51,-99.99,,,-99.99,,2013-06-16 20:53:00,
2013-06-16 14:01:00,74.0,54.0,29.97,WNW,283,13.0,22.0,50,-99.99,,,-99.99,,2013-06-16 21:01:00,
2013-06-16 14:11:00,74.0,54.0,29.97,WNW,284,15.0,27.0,49,-99.99,,,-99.99,,2013-06-16 21:11:00,
2013-06-16 14:21:00,74.0,53.0,29.97,WNW,284,15.0,23.0,47,-99.99,,,-99.99,,2013-06-16 21:21:00,
2013-06-16 14:32:00,74.0,53.0,29.97,WNW,285,16.0,25.0,47,-99.99,,,-99.99,,2013-06-16 21:32:00,
2013-06-16 14:42:00,73.0,52.0,29.97,WNW,283,15.0,31.0,47,-99.99,,,-99.99,,2013-06-16 21:42:00,
2013-06-16 14:53:00,73.0,51.0,29.97,WNW,284,18.0,32.0,45,-99.99,,,-99.99,,2013-06-16 21:53:00,
2013-06-16 15:01:00,74.0,50.0,29.97,West,280,18.0,31.0,44,-99.99,,,-99.99,,2013-06-16 22:01:00,
2013-06-16 15:12:00,74.0,50.0,29.97,WNW,283,18.0,31.0,42,-99.99,,,-99.99,,2013-06-16 22:12:00,
2013-06-16 15:22:00,74.0,50.0,29.97,West,279,16.0,30.0,43,-99.99,,,-99.99,,2013-06-16 22:22:00,
2013-06-16 15:32:00,74.0,50.0,29.97,West,281,13.0,34.0,42,-99.99,,,-99.99,,2013-06-16 22:32:00,
2013-06-16 15:42:00,74.0,50.0,29.97,West,270,17.0,30.0,42,-99.99,,,-99.99,,2013-06-16 22:42:00,
2013-06-16 15:52:00,74.0,50.0,29.97,West,277,14.0,26.0,44,-99.99,,,-99.99,,2013-06-16 22:52:00,
2013-06-16 16:01:00,74.0,50.0,29.98,West,277,12.0,25.0,44,-99.99,,,-99.99,,2013-06-16 23:01:00,
2013-06-16 16:11:00,74.0,49.0,29.98,West,279,16.0,30.0,41,-99.99,,,-99.99,,2013-06-16 23:11:00,
2013-06-16 16:22:00,74.0,48.0,29.98,West,275,16.0,31.0,40,-99.99,,,-99.99,,2013-06-16 23:22:00,
2013-06-16 16:32:00,73.0,49.0,29.98,West,281,13.0,27.0,41,-99.99,,,-99.99,,2013-06-16 23:32:00,
2013-06-16 16:42:00,73.0,49.0,29.99,West,276,10.0,21.0,42,-99.99,,,-99.99,,2013-06-16 23:42:00,
2013-06-16 16:51:00,73.0,49.0,29.99,West,272,12.0,24.0,42,-99.99,,,-99.99,,2013-06-16 23:51:00,
2013-06-16 17:01:00,73.0,49.0,29.99,West,266,12.0,20.0,43,-99.99,,,-99.99,,2013-06-17 00:01:00,
2013-06-16 17:11:00,74.0,49.0,30.00,West,262,8.0,15.0,41,-99.99,,,-99.99,,2013-06-17 00:11:00,
2013-06-16 17:22:00,74.0,50.0,30.00,West,264,9.0,17.0,41,-99.99,,,-99.99,,2013-06-17 00:22:00,
2013-06-16 17:32:00,75.0,48.0,29.99,West,268,12.0,24.0,39,-99.99,,,-99.99,,2013-06-17 00:32:00,
2013-06-16 17:42:00,75.0,48.0,29.99,West,268,12.0,24.0,39,-99.99,,,-99.99,,2013-06-17 00:42:00,
2013-06-16 17:52:00,75.0,49.0,30.01,WSW,256,12.0,21.0,39,-99.99,,,-99.99,,2013-06-17 00:52:00,
2013-06-16 18:02:00,75.0,49.0,30.01,WSW,258,12.0,25.0,40,-99.99,,,-99.99,,2013-06-17 01:02:00,
2013-06-16 18:11:00,74.0,49.0,30.02,West,269,12.0,21.0,42,-99.99,,,-99.99,,2013-06-17 01:11:00,
2013-06-16 18:22:00,73.0,45.0,30.02,West,270,13.0,23.0,37,-99.99,,,-99.99,,2013-06-17 01:22:00,
2013-06-16 18:32:00,72.0,44.0,30.02,West,267,11.0,22.0,36,-99.99,,,-99.99,,2013-06-17 01:32:00,
2013-06-16 18:43:00,72.0,45.0,30.02,West,270,10.0,20.0,37,-99.99,,,-99.99,,2013-06-17 01:43:00,
2013-06-16 18:53:00,72.0,46.0,30.02,West,278,10.0,18.0,38,-99.99,,,-99.99,,2013-06-17 01:53:00,
2013-06-16 19:02:00,72.0,46.0,30.03,West,268,12.0,20.0,39,-99.99,,,-99.99,,2013-06-17 02:02:00,
2013-06-16 19:12:00,72.0,45.0,30.03,West,273,10.0,17.0,38,-99.99,,,-99.99,,2013-06-17 02:12:00,
2013-06-16 19:22:00,71.0,44.0,30.03,West,273,10.0,18.0,38,-99.99,,,-99.99,,2013-06-17 02:22:00,
2013-06-16 19:34:00,71.0,46.0,30.03,West,278,11.0,18.0,41,-99.99,,,-99.99,,2013-06-17 02:34:00,
2013-06-16 19:43:00,71.0,47.0,30.04,West,281,10.0,20.0,42,-99.99,,,-99.99,,2013-06-17 02:43:00,
2013-06-16 19:53:00,70.0,47.0,30.04,West,280,10.0,15.0,43,-99.99,,,-99.99,,2013-06-17 02:53:00,
2013-06-16 20:02:00,70.0,48.0,30.05,West,281,9.0,15.0,45,-99.99,,,-99.99,,2013-06-17 03:02:00,
2013-06-16 20:12:00,70.0,49.0,30.05,West,266,7.0,11.0,46,-99.99,,,-99.99,,2013-06-17 03:12:00,
2013-06-16 20:22:00,69.0,49.0,30.05,WNW,288,7.0,12.0,48,-99.99,,,-99.99,,2013-06-17 03:22:00,
2013-06-16 20:33:00,69.0,50.0,30.05,West,262,6.0,13.0,49,-99.99,,,-99.99,,2013-06-17 03:33:00,
2013-06-16 20:44:00,69.0,50.0,30.05,West,263,4.0,6.0,50,-99.99,,,-99.99,,2013-06-17 03:44:00,
2013-06-16 20:53:00,69.0,50.0,30.05,West,271,4.0,8.0,50,-99.99,,,-99.99,,2013-06-17 03:53:00,
2013-06-16 21:02:00,69.0,50.0,30.05,West,274,6.0,10.0,51,-99.99,,,-99.99,,2013-06-17 04:02:00,
2013-06-16 21:12:00,69.0,51.0,30.05,WNW,286,5.0,9.0,52,-99.99,,,-99.99,,2013-06-17 04:12:00,
2013-06-16 21:22:00,69.0,50.0,30.05,WNW,284,5.0,11.0,51,-99.99,,,-99.99,,2013-06-17 04:22:00,
2013-06-16 21:33:00,68.0,50.0,30.05,West,261,5.0,8.0,53,-99.99,,,-99.99,,2013-06-17 04:33:00,
2013-06-16 21:42:00,68.0,50.0,30.05,WSW,257,7.0,13.0,53,-99.99,,,-99.99,,2013-06-17 04:42:00,
2013-06-16 21:53:00,68.0,50.0,30.05,WSW,248,9.0,15.0,53,-99.99,,,-99.99,,2013-06-17 04:53:00,
2013-06-16 22:02:00,68.0,51.0,30.05,WSW,248,7.0,15.0,54,-99.99,,,-99.99,,2013-06-17 05:02:00,
2013-06-16 22:11:00,67.0,51.0,30.05,WSW,258,7.0,11.0,57,-99.99,,,-99.99,,2013-06-17 05:11:00,
2013-06-16 22:22:00,67.0,52.0,30.05,WSW,258,9.0,14.0,58,-99.99,,,-99.99,,2013-06-17 05:22:00,
2013-06-16 22:33:00,67.0,52.0,30.06,WSW,253,10.0,16.0,59,-99.99,,,-99.99,,2013-06-17 05:33:00,
2013-06-16 22:44:00,67.0,52.0,30.06,West,264,9.0,16.0,59,-99.99,,,-99.99,,2013-06-17 05:44:00,
2013-06-16 22:53:00,66.0,52.0,30.06,West,260,7.0,12.0,60,-99.99,,,-99.99,,2013-06-17 05:53:00,
2013-06-16 23:02:00,66.0,52.0,30.07,West,266,7.0,11.0,60,-99.99,,,-99.99,,2013-06-17 06:02:00,
2013-06-16 23:12:00,66.0,52.0,30.07,West,270,8.0,12.0,60,-99.99,,,-99.99,,2013-06-17 06:12:00,
2013-06-16 23:22:00,66.0,52.0,30.07,West,270,8.0,12.0,60,-99.99,,,-99.99,,2013-06-17 06:22:00,
2013-06-16 23:32:00,66.0,52.0,30.07,West,270,8.0,13.0,60,-99.99,,,-99.99,,2013-06-17 06:32:00,
2013-06-16 23:43:00,66.0,52.0,30.07,West,269,7.0,11.0,60,-99.99,,,-99.99,,2013-06-17 06:43:00,
2013-06-16 23:53:00,66.0,52.0,30.07,WNW,282,6.0,11.0,60,-99.99,,,-99.99,,2013-06-17 06:53:00,